sensor_id;sensor_type;location;lat;lon;timestamp;pressure;altitude;pressure_sealevel;temperature;humidity
6136;BME280;24008;42.664;23.372;2023-05-10T00:02:11;95008.25;;;8.04;100.00
6136;BME280;24008;42.664;23.372;2023-05-10T00:04:37;95009.28;;;8.02;100.00
6136;BME280;24008;42.664;23.372;2023-05-10T00:07:05;95008.72;;;7.98;100.00
6136;BME280;24008;42.664;23.372;2023-05-10T00:09:32;94974.16;;;7.73;100.00
6136;BME280;24008;42.664;23.372;2023-05-10T00:11:59;95007.56;;;8.02;100.00
6136;BME280;24008;42.664;23.372;2023-05-10T00:14:25;95009.78;;;7.95;100.00
6136;BME280;24008;42.664;23.372;2023-05-10T00:16:52;95003.31;;;7.91;100.00
6136;BME280;24008;42.664;23.372;2023-05-10T00:19:19;95013.94;;;7.85;100.00
6136;BME280;24008;42.664;23.372;2023-05-10T00:21:46;94867.44;;;7.06;100.00
6136;BME280;24008;42.664;23.372;2023-05-10T00:24:14;94991.72;;;7.87;100.00
6136;BME280;24008;42.664;23.372;2023-05-10T00:26:40;94966.81;;;7.59;100.00
6136;BME280;24008;42.664;23.372;2023-05-10T00:29:07;94991.03;;;7.85;100.00
6136;BME280;24008;42.664;23.372;2023-05-10T00:31:34;94775.19;;;6.39;100.00
6136;BME280;24008;42.664;23.372;2023-05-10T00:34:01;94996.59;;;7.79;100.00
6136;BME280;24008;42.664;23.372;2023-05-10T00:36:27;94992.66;;;7.75;100.00
6136;BME280;24008;42.664;23.372;2023-05-10T00:38:54;95000.31;;;7.75;100.00
6136;BME280;24008;42.664;23.372;2023-05-10T00:41:22;94988.97;;;7.79;100.00
6136;BME280;24008;42.664;23.372;2023-05-10T00:43:49;94988.75;;;7.71;100.00
6136;BME280;24008;42.664;23.372;2023-05-10T00:46:16;94986.22;;;7.71;100.00
6136;BME280;24008;42.664;23.372;2023-05-10T00:48:43;94964.94;;;7.50;100.00
6136;BME280;24008;42.664;23.372;2023-05-10T00:51:11;94981.94;;;7.72;100.00
6136;BME280;24008;42.664;23.372;2023-05-10T00:53:38;94929.34;;;7.39;100.00
6136;BME280;24008;42.664;23.372;2023-05-10T00:56:05;94950.75;;;7.47;100.00
6136;BME280;24008;42.664;23.372;2023-05-10T00:58:33;94982.84;;;7.71;100.00
6136;BME280;24008;42.664;23.372;2023-05-10T01:01:00;94963.34;;;7.60;100.00
6136;BME280;24008;42.664;23.372;2023-05-10T01:03:28;94982.97;;;7.69;100.00
6136;BME280;24008;42.664;23.372;2023-05-10T01:05:55;94952.47;;;7.47;100.00
6136;BME280;24008;42.664;23.372;2023-05-10T01:08:22;94870.78;;;6.96;100.00
6136;BME280;24008;42.664;23.372;2023-05-10T01:10:49;94950.25;;;7.42;100.00
6136;BME280;24008;42.664;23.372;2023-05-10T01:13:18;94971.06;;;7.58;100.00
6136;BME280;24008;42.664;23.372;2023-05-10T01:15:51;94973.97;;;7.54;100.00
6136;BME280;24008;42.664;23.372;2023-05-10T01:18:20;94908.56;;;7.11;100.00
6136;BME280;24008;42.664;23.372;2023-05-10T01:20:48;94928.19;;;7.20;100.00
6136;BME280;24008;42.664;23.372;2023-05-10T01:23:31;94980.44;;;7.58;100.00
6136;BME280;24008;42.664;23.372;2023-05-10T01:26:23;94947.63;;;7.44;100.00
6136;BME280;24008;42.664;23.372;2023-05-10T01:32:08;94950.75;;;7.36;100.00
6136;BME280;24008;42.664;23.372;2023-05-10T01:34:44;94949.47;;;7.42;100.00
6136;BME280;24008;42.664;23.372;2023-05-10T01:37:20;94938.47;;;7.41;100.00
6136;BME280;24008;42.664;23.372;2023-05-10T01:39:53;94933.06;;;7.35;100.00
6136;BME280;24008;42.664;23.372;2023-05-10T01:42:23;94963.09;;;7.52;100.00
6136;BME280;24008;42.664;23.372;2023-05-10T01:44:56;94936.53;;;7.34;100.00
6136;BME280;24008;42.664;23.372;2023-05-10T01:47:31;94960.53;;;7.52;100.00
6136;BME280;24008;42.664;23.372;2023-05-10T01:50:03;94956.75;;;7.46;100.00
6136;BME280;24008;42.664;23.372;2023-05-10T01:52:42;94845.94;;;6.77;100.00
6136;BME280;24008;42.664;23.372;2023-05-10T01:55:16;94955.81;;;7.47;100.00
6136;BME280;24008;42.664;23.372;2023-05-10T01:57:46;94940.00;;;7.33;100.00
6136;BME280;24008;42.664;23.372;2023-05-10T02:00:15;94957.31;;;7.50;100.00
6136;BME280;24008;42.664;23.372;2023-05-10T02:02:45;94958.47;;;7.46;100.00
6136;BME280;24008;42.664;23.372;2023-05-10T02:05:13;94859.59;;;6.76;100.00
6136;BME280;24008;42.664;23.372;2023-05-10T02:07:40;94930.97;;;7.17;100.00
6136;BME280;24008;42.664;23.372;2023-05-10T02:10:09;94964.00;;;7.40;100.00
6136;BME280;24008;42.664;23.372;2023-05-10T02:12:40;94973.03;;;7.21;100.00
6136;BME280;24008;42.664;23.372;2023-05-10T02:15:08;94956.72;;;7.13;100.00
6136;BME280;24008;42.664;23.372;2023-05-10T02:17:37;94947.81;;;6.85;100.00
6136;BME280;24008;42.664;23.372;2023-05-10T02:20:08;94973.34;;;6.95;100.00
6136;BME280;24008;42.664;23.372;2023-05-10T02:22:36;94970.31;;;6.90;100.00
6136;BME280;24008;42.664;23.372;2023-05-10T02:25:05;94823.00;;;5.86;100.00
6136;BME280;24008;42.664;23.372;2023-05-10T02:27:33;94815.03;;;5.79;100.00
6136;BME280;24008;42.664;23.372;2023-05-10T02:30:01;94979.91;;;6.75;100.00
6136;BME280;24008;42.664;23.372;2023-05-10T02:32:29;94957.88;;;6.52;100.00
6136;BME280;24008;42.664;23.372;2023-05-10T02:34:57;94977.75;;;6.58;100.00
6136;BME280;24008;42.664;23.372;2023-05-10T02:37:26;94974.38;;;6.46;100.00
6136;BME280;24008;42.664;23.372;2023-05-10T02:39:55;94953.38;;;6.20;100.00
6136;BME280;24008;42.664;23.372;2023-05-10T02:42:24;94948.75;;;6.14;100.00
6136;BME280;24008;42.664;23.372;2023-05-10T02:44:53;94954.28;;;6.19;100.00
6136;BME280;24008;42.664;23.372;2023-05-10T02:47:22;94938.00;;;6.10;100.00
6136;BME280;24008;42.664;23.372;2023-05-10T02:49:49;94970.81;;;6.25;100.00
6136;BME280;24008;42.664;23.372;2023-05-10T02:52:20;94962.03;;;6.29;100.00
6136;BME280;24008;42.664;23.372;2023-05-10T02:54:54;94911.41;;;5.79;100.00
6136;BME280;24008;42.664;23.372;2023-05-10T02:57:26;94924.06;;;5.92;100.00
6136;BME280;24008;42.664;23.372;2023-05-10T02:59:54;94969.03;;;6.14;100.00
6136;BME280;24008;42.664;23.372;2023-05-10T03:02:21;94972.91;;;6.07;100.00
6136;BME280;24008;42.664;23.372;2023-05-10T03:04:48;94870.44;;;5.49;100.00
6136;BME280;24008;42.664;23.372;2023-05-10T03:07:14;94947.88;;;6.02;100.00
6136;BME280;24008;42.664;23.372;2023-05-10T03:09:42;94972.81;;;6.08;100.00
6136;BME280;24008;42.664;23.372;2023-05-10T03:12:15;94973.88;;;6.17;100.00
6136;BME280;24008;42.664;23.372;2023-05-10T03:14:53;94929.63;;;5.85;100.00
6136;BME280;24008;42.664;23.372;2023-05-10T03:17:25;94973.47;;;6.23;100.00
6136;BME280;24008;42.664;23.372;2023-05-10T03:19:56;94942.41;;;5.96;100.00
6136;BME280;24008;42.664;23.372;2023-05-10T03:22:26;94969.31;;;6.22;100.00
6136;BME280;24008;42.664;23.372;2023-05-10T03:24:56;94906.91;;;5.59;100.00
6136;BME280;24008;42.664;23.372;2023-05-10T03:27:26;94979.34;;;6.24;100.00
6136;BME280;24008;42.664;23.372;2023-05-10T03:29:53;94976.81;;;6.24;100.00
6136;BME280;24008;42.664;23.372;2023-05-10T03:32:22;94983.63;;;6.23;100.00
6136;BME280;24008;42.664;23.372;2023-05-10T03:34:48;94983.97;;;6.30;100.00
6136;BME280;24008;42.664;23.372;2023-05-10T03:37:15;94985.53;;;6.43;100.00
6136;BME280;24008;42.664;23.372;2023-05-10T03:39:42;94985.31;;;6.46;100.00
6136;BME280;24008;42.664;23.372;2023-05-10T03:42:09;94950.97;;;6.30;100.00
6136;BME280;24008;42.664;23.372;2023-05-10T03:44:39;94982.81;;;6.58;100.00
6136;BME280;24008;42.664;23.372;2023-05-10T03:47:05;94936.00;;;6.27;100.00
6136;BME280;24008;42.664;23.372;2023-05-10T03:49:32;94991.81;;;6.50;100.00
6136;BME280;24008;42.664;23.372;2023-05-10T03:51:59;94746.66;;;4.95;99.08
6136;BME280;24008;42.664;23.372;2023-05-10T03:54:26;94946.72;;;6.30;99.13
6136;BME280;24008;42.664;23.372;2023-05-10T03:56:53;94985.81;;;6.52;99.30
6136;BME280;24008;42.664;23.372;2023-05-10T03:59:19;94950.56;;;6.36;98.69
6136;BME280;24008;42.664;23.372;2023-05-10T04:01:47;94969.94;;;6.37;99.41
6136;BME280;24008;42.664;23.372;2023-05-10T04:04:14;94987.91;;;6.58;99.97
6136;BME280;24008;42.664;23.372;2023-05-10T04:06:43;94921.34;;;6.06;99.51
6136;BME280;24008;42.664;23.372;2023-05-10T04:09:10;94934.53;;;6.11;98.32
6136;BME280;24008;42.664;23.372;2023-05-10T04:11:37;94888.25;;;5.84;97.12
6136;BME280;24008;42.664;23.372;2023-05-10T04:14:04;94996.22;;;6.60;97.61
6136;BME280;24008;42.664;23.372;2023-05-10T04:16:31;94922.81;;;5.98;97.41
6136;BME280;24008;42.664;23.372;2023-05-10T04:18:59;95000.84;;;6.66;98.04
6136;BME280;24008;42.664;23.372;2023-05-10T04:21:26;94994.41;;;6.62;99.02
6136;BME280;24008;42.664;23.372;2023-05-10T04:23:53;94932.59;;;6.15;99.28
6136;BME280;24008;42.664;23.372;2023-05-10T04:26:19;94996.38;;;6.69;98.33
6136;BME280;24008;42.664;23.372;2023-05-10T04:28:50;95001.78;;;6.65;99.12
6136;BME280;24008;42.664;23.372;2023-05-10T04:31:17;95002.25;;;6.70;99.49
6136;BME280;24008;42.664;23.372;2023-05-10T04:33:43;95010.81;;;6.69;99.24
6136;BME280;24008;42.664;23.372;2023-05-10T04:36:12;95004.91;;;6.68;99.16
6136;BME280;24008;42.664;23.372;2023-05-10T04:38:39;95003.75;;;6.61;100.00
6136;BME280;24008;42.664;23.372;2023-05-10T04:41:06;95007.09;;;6.62;100.00
6136;BME280;24008;42.664;23.372;2023-05-10T04:43:33;95001.66;;;6.66;100.00
6136;BME280;24008;42.664;23.372;2023-05-10T04:46:00;94966.97;;;6.43;100.00
6136;BME280;24008;42.664;23.372;2023-05-10T04:48:27;94951.19;;;6.16;100.00
6136;BME280;24008;42.664;23.372;2023-05-10T04:50:54;94178.13;;;1.27;100.00
6136;BME280;24008;42.664;23.372;2023-05-10T04:53:23;95023.09;;;6.51;100.00
6136;BME280;24008;42.664;23.372;2023-05-10T04:55:49;95017.66;;;6.56;100.00
6136;BME280;24008;42.664;23.372;2023-05-10T04:58:16;95004.75;;;6.59;100.00
6136;BME280;24008;42.664;23.372;2023-05-10T05:00:43;94998.41;;;6.64;100.00
6136;BME280;24008;42.664;23.372;2023-05-10T05:03:10;94909.69;;;6.04;100.00
6136;BME280;24008;42.664;23.372;2023-05-10T05:05:37;95000.63;;;6.69;100.00
6136;BME280;24008;42.664;23.372;2023-05-10T05:08:04;94858.72;;;5.83;100.00
6136;BME280;24008;42.664;23.372;2023-05-10T05:10:32;94905.09;;;6.09;100.00
6136;BME280;24008;42.664;23.372;2023-05-10T05:12:59;94929.75;;;6.31;100.00
6136;BME280;24008;42.664;23.372;2023-05-10T05:15:26;95006.47;;;6.82;100.00
6136;BME280;24008;42.664;23.372;2023-05-10T05:17:52;94948.97;;;6.46;100.00
6136;BME280;24008;42.664;23.372;2023-05-10T05:20:19;94938.31;;;6.41;100.00
6136;BME280;24008;42.664;23.372;2023-05-10T05:22:46;95007.19;;;6.95;100.00
6136;BME280;24008;42.664;23.372;2023-05-10T05:25:13;94907.00;;;6.29;100.00
6136;BME280;24008;42.664;23.372;2023-05-10T05:27:42;95013.31;;;7.04;100.00
6136;BME280;24008;42.664;23.372;2023-05-10T05:30:09;95020.41;;;7.11;100.00
6136;BME280;24008;42.664;23.372;2023-05-10T05:32:36;94975.75;;;6.85;99.90
6136;BME280;24008;42.664;23.372;2023-05-10T05:35:03;95022.44;;;7.06;100.00
6136;BME280;24008;42.664;23.372;2023-05-10T05:37:31;95016.47;;;7.07;99.52
6136;BME280;24008;42.664;23.372;2023-05-10T05:39:57;95058.97;;;7.05;100.00
6136;BME280;24008;42.664;23.372;2023-05-10T05:42:26;94832.91;;;5.78;100.00
6136;BME280;24008;42.664;23.372;2023-05-10T05:44:54;95017.84;;;7.00;100.00
6136;BME280;24008;42.664;23.372;2023-05-10T05:47:21;94849.81;;;5.90;100.00
6136;BME280;24008;42.664;23.372;2023-05-10T05:49:48;94875.53;;;5.97;100.00
6136;BME280;24008;42.664;23.372;2023-05-10T05:52:14;94952.22;;;6.48;100.00
6136;BME280;24008;42.664;23.372;2023-05-10T05:54:41;94741.69;;;5.06;100.00
6136;BME280;24008;42.664;23.372;2023-05-10T05:57:08;94994.44;;;6.73;100.00
6136;BME280;24008;42.664;23.372;2023-05-10T05:59:35;95029.81;;;6.87;100.00
6136;BME280;24008;42.664;23.372;2023-05-10T06:02:09;95039.97;;;6.87;100.00
6136;BME280;24008;42.664;23.372;2023-05-10T06:04:36;95037.97;;;6.79;100.00
6136;BME280;24008;42.664;23.372;2023-05-10T06:07:03;95034.50;;;6.80;100.00
6136;BME280;24008;42.664;23.372;2023-05-10T06:09:30;95036.50;;;6.88;100.00
6136;BME280;24008;42.664;23.372;2023-05-10T06:11:56;95010.00;;;6.68;100.00
6136;BME280;24008;42.664;23.372;2023-05-10T06:14:23;95033.03;;;6.89;100.00
6136;BME280;24008;42.664;23.372;2023-05-10T06:16:50;95011.28;;;6.74;100.00
6136;BME280;24008;42.664;23.372;2023-05-10T06:19:18;95036.75;;;6.96;100.00
6136;BME280;24008;42.664;23.372;2023-05-10T06:21:45;94981.34;;;6.66;100.00
6136;BME280;24008;42.664;23.372;2023-05-10T06:24:12;94914.88;;;6.26;100.00
6136;BME280;24008;42.664;23.372;2023-05-10T06:26:38;94967.38;;;6.61;100.00
6136;BME280;24008;42.664;23.372;2023-05-10T06:29:05;95044.66;;;7.15;100.00
6136;BME280;24008;42.664;23.372;2023-05-10T06:31:32;94959.97;;;6.58;100.00
6136;BME280;24008;42.664;23.372;2023-05-10T06:33:59;95051.13;;;7.19;100.00
6136;BME280;24008;42.664;23.372;2023-05-10T06:36:27;95043.75;;;7.28;100.00
6136;BME280;24008;42.664;23.372;2023-05-10T06:38:54;95040.06;;;7.32;99.60
6136;BME280;24008;42.664;23.372;2023-05-10T06:41:21;95052.44;;;7.36;97.34
6136;BME280;24008;42.664;23.372;2023-05-10T06:43:48;95053.94;;;7.39;95.13
6136;BME280;24008;42.664;23.372;2023-05-10T06:46:15;95047.94;;;7.40;95.85
6136;BME280;24008;42.664;23.372;2023-05-10T06:48:41;95012.78;;;7.11;94.60
6136;BME280;24008;42.664;23.372;2023-05-10T06:51:08;95046.78;;;7.44;94.74
6136;BME280;24008;42.664;23.372;2023-05-10T06:53:36;95021.34;;;7.33;94.41
6136;BME280;24008;42.664;23.372;2023-05-10T06:56:03;95044.59;;;7.50;93.85
6136;BME280;24008;42.664;23.372;2023-05-10T06:58:30;95052.09;;;7.52;92.86
6136;BME280;24008;42.664;23.372;2023-05-10T07:01:31;94903.59;;;6.41;92.00
6136;BME280;24008;42.664;23.372;2023-05-10T07:04:23;95052.91;;;7.52;91.89
6136;BME280;24008;42.664;23.372;2023-05-10T07:06:50;95050.97;;;7.56;91.78
6136;BME280;24008;42.664;23.372;2023-05-10T07:09:18;94986.44;;;7.12;91.65
6136;BME280;24008;42.664;23.372;2023-05-10T07:11:45;94906.56;;;6.70;91.07
6136;BME280;24008;42.664;23.372;2023-05-10T07:14:12;95007.00;;;7.32;90.97
6136;BME280;24008;42.664;23.372;2023-05-10T07:16:38;95030.81;;;7.42;88.83
6136;BME280;24008;42.664;23.372;2023-05-10T07:19:05;95050.97;;;7.67;88.98
6136;BME280;24008;42.664;23.372;2023-05-10T07:21:32;95052.47;;;7.70;89.00
6136;BME280;24008;42.664;23.372;2023-05-10T07:24:00;95064.97;;;7.73;89.28
6136;BME280;24008;42.664;23.372;2023-05-10T07:26:28;94995.81;;;7.45;88.52
6136;BME280;24008;42.664;23.372;2023-05-10T07:29:15;94913.06;;;6.97;88.18
6136;BME280;24008;42.664;23.372;2023-05-10T07:31:42;94978.81;;;7.35;86.59
6136;BME280;24008;42.664;23.372;2023-05-10T07:34:09;94976.50;;;7.43;87.77
6136;BME280;24008;42.664;23.372;2023-05-10T07:36:36;95064.84;;;7.97;88.02
6136;BME280;24008;42.664;23.372;2023-05-10T07:39:03;94907.88;;;6.98;87.90
6136;BME280;24008;42.664;23.372;2023-05-10T07:41:32;95071.78;;;8.06;88.48
6136;BME280;24008;42.664;23.372;2023-05-10T07:43:58;95043.09;;;7.81;86.66
6136;BME280;24008;42.664;23.372;2023-05-10T07:46:25;95024.72;;;7.67;86.69
6136;BME280;24008;42.664;23.372;2023-05-10T07:48:52;95080.13;;;8.08;87.26
6136;BME280;24008;42.664;23.372;2023-05-10T07:51:19;95077.78;;;8.05;85.98
6136;BME280;24008;42.664;23.372;2023-05-10T07:53:46;95079.41;;;8.06;86.40
6136;BME280;24008;42.664;23.372;2023-05-10T07:56:24;95080.34;;;8.05;85.63
6136;BME280;24008;42.664;23.372;2023-05-10T07:58:54;95075.13;;;8.06;85.48
6136;BME280;24008;42.664;23.372;2023-05-10T08:01:21;94977.19;;;7.56;85.85
6136;BME280;24008;42.664;23.372;2023-05-10T08:03:48;95019.59;;;7.89;85.35
6136;BME280;24008;42.664;23.372;2023-05-10T08:06:16;95096.75;;;8.23;84.08
6136;BME280;24008;42.664;23.372;2023-05-10T08:08:45;95086.81;;;8.31;84.64
6136;BME280;24008;42.664;23.372;2023-05-10T08:11:14;94984.34;;;7.73;83.14
6136;BME280;24008;42.664;23.372;2023-05-10T08:13:41;95106.50;;;8.40;82.64
6136;BME280;24008;42.664;23.372;2023-05-10T08:16:09;95023.75;;;8.12;83.86
6136;BME280;24008;42.664;23.372;2023-05-10T08:18:37;95083.53;;;8.51;83.75
6136;BME280;24008;42.664;23.372;2023-05-10T08:21:03;95085.97;;;8.53;82.75
6136;BME280;24008;42.664;23.372;2023-05-10T08:23:30;95078.44;;;8.51;83.03
6136;BME280;24008;42.664;23.372;2023-05-10T08:25:57;95085.28;;;8.51;83.20
6136;BME280;24008;42.664;23.372;2023-05-10T08:28:24;95035.91;;;8.09;83.65
6136;BME280;24008;42.664;23.372;2023-05-10T08:30:51;95053.00;;;8.29;83.58
6136;BME280;24008;42.664;23.372;2023-05-10T08:33:19;95078.25;;;8.43;83.52
6136;BME280;24008;42.664;23.372;2023-05-10T08:35:46;95082.63;;;8.41;84.46
6136;BME280;24008;42.664;23.372;2023-05-10T08:38:13;95086.94;;;8.41;84.67
6136;BME280;24008;42.664;23.372;2023-05-10T08:40:42;95081.25;;;8.37;85.83
6136;BME280;24008;42.664;23.372;2023-05-10T08:43:10;94970.97;;;7.60;87.33
6136;BME280;24008;42.664;23.372;2023-05-10T08:45:39;95038.22;;;7.89;87.67
6136;BME280;24008;42.664;23.372;2023-05-10T08:48:08;95088.31;;;8.11;89.11
6136;BME280;24008;42.664;23.372;2023-05-10T08:50:38;95063.56;;;7.91;90.80
6136;BME280;24008;42.664;23.372;2023-05-10T08:53:08;95088.31;;;8.00;90.13
6136;BME280;24008;42.664;23.372;2023-05-10T08:55:36;95096.06;;;7.99;91.56
6136;BME280;24008;42.664;23.372;2023-05-10T08:58:04;95090.16;;;7.98;91.93
6136;BME280;24008;42.664;23.372;2023-05-10T09:00:31;95047.38;;;7.70;91.99
6136;BME280;24008;42.664;23.372;2023-05-10T09:02:58;95083.59;;;8.07;94.29
6136;BME280;24008;42.664;23.372;2023-05-10T09:05:25;95077.56;;;8.08;95.33
6136;BME280;24008;42.664;23.372;2023-05-10T09:07:54;95071.56;;;8.09;93.15
6136;BME280;24008;42.664;23.372;2023-05-10T09:10:21;95093.38;;;8.22;92.67
6136;BME280;24008;42.664;23.372;2023-05-10T09:12:51;94490.25;;;4.11;90.92
6136;BME280;24008;42.664;23.372;2023-05-10T09:15:19;95049.13;;;7.91;91.70
6136;BME280;24008;42.664;23.372;2023-05-10T09:17:47;95074.78;;;8.11;91.94
6136;BME280;24008;42.664;23.372;2023-05-10T09:20:15;95054.06;;;8.04;92.07
6136;BME280;24008;42.664;23.372;2023-05-10T09:22:44;95072.25;;;8.33;92.59
6136;BME280;24008;42.664;23.372;2023-05-10T09:25:13;95076.84;;;8.39;92.91
6136;BME280;24008;42.664;23.372;2023-05-10T09:27:43;95077.16;;;8.46;93.34
6136;BME280;24008;42.664;23.372;2023-05-10T09:30:15;95059.34;;;8.46;92.29
6136;BME280;24008;42.664;23.372;2023-05-10T09:32:44;95053.81;;;8.41;92.33
6136;BME280;24008;42.664;23.372;2023-05-10T09:35:12;95019.69;;;8.32;93.09
6136;BME280;24008;42.664;23.372;2023-05-10T09:37:40;95067.72;;;8.80;91.95
6136;BME280;24008;42.664;23.372;2023-05-10T09:40:14;95070.91;;;8.93;90.23
6136;BME280;24008;42.664;23.372;2023-05-10T09:42:42;95072.38;;;8.95;87.85
6136;BME280;24008;42.664;23.372;2023-05-10T09:45:09;95070.53;;;8.97;87.70
6136;BME280;24008;42.664;23.372;2023-05-10T09:47:36;95038.75;;;8.70;86.06
6136;BME280;24008;42.664;23.372;2023-05-10T09:50:03;95056.72;;;8.79;86.45
6136;BME280;24008;42.664;23.372;2023-05-10T09:52:31;95069.16;;;8.93;87.53
6136;BME280;24008;42.664;23.372;2023-05-10T09:55:13;95064.59;;;8.97;87.88
6136;BME280;24008;42.664;23.372;2023-05-10T09:57:40;95066.00;;;9.01;87.19
6136;BME280;24008;42.664;23.372;2023-05-10T10:00:08;94984.66;;;8.56;86.35
6136;BME280;24008;42.664;23.372;2023-05-10T10:02:35;95058.53;;;9.09;86.15
6136;BME280;24008;42.664;23.372;2023-05-10T10:05:02;95055.72;;;9.12;86.58
6136;BME280;24008;42.664;23.372;2023-05-10T10:07:29;95049.13;;;9.10;86.95
6136;BME280;24008;42.664;23.372;2023-05-10T10:09:58;95049.72;;;9.13;86.66
6136;BME280;24008;42.664;23.372;2023-05-10T10:12:45;95023.69;;;8.98;86.83
6136;BME280;24008;42.664;23.372;2023-05-10T10:15:12;95051.09;;;9.17;86.38
6136;BME280;24008;42.664;23.372;2023-05-10T10:17:40;95045.47;;;9.23;85.43
6136;BME280;24008;42.664;23.372;2023-05-10T10:20:08;95051.03;;;9.28;84.59
6136;BME280;24008;42.664;23.372;2023-05-10T10:22:36;95041.13;;;9.35;83.68
6136;BME280;24008;42.664;23.372;2023-05-10T10:25:04;95028.91;;;9.38;82.19
6136;BME280;24008;42.664;23.372;2023-05-10T10:27:39;95009.31;;;9.39;82.04
6136;BME280;24008;42.664;23.372;2023-05-10T10:30:19;95020.94;;;9.53;82.04
6136;BME280;24008;42.664;23.372;2023-05-10T10:33:01;95039.69;;;9.72;82.31
6136;BME280;24008;42.664;23.372;2023-05-10T10:35:34;95050.19;;;9.79;82.80
6136;BME280;24008;42.664;23.372;2023-05-10T10:38:01;95045.75;;;9.81;81.08
6136;BME280;24008;42.664;23.372;2023-05-10T10:40:30;95047.63;;;9.79;80.38
6136;BME280;24008;42.664;23.372;2023-05-10T10:42:57;95046.88;;;9.88;80.85
6136;BME280;24008;42.664;23.372;2023-05-10T10:45:26;94904.13;;;8.95;81.21
6136;BME280;24008;42.664;23.372;2023-05-10T10:48:20;95034.00;;;9.90;81.24
6136;BME280;24008;42.664;23.372;2023-05-10T10:50:47;95039.97;;;10.09;79.77
6136;BME280;24008;42.664;23.372;2023-05-10T10:53:22;94828.22;;;8.69;78.99
6136;BME280;24008;42.664;23.372;2023-05-10T10:55:49;95039.75;;;9.92;78.84
6136;BME280;24008;42.664;23.372;2023-05-10T10:58:29;94857.03;;;8.90;78.43
6136;BME280;24008;42.664;23.372;2023-05-10T11:01:11;95046.34;;;9.94;77.60
6136;BME280;24008;42.664;23.372;2023-05-10T11:03:38;95035.31;;;9.84;77.88
6136;BME280;24008;42.664;23.372;2023-05-10T11:06:05;94959.53;;;9.45;78.85
6136;BME280;24008;42.664;23.372;2023-05-10T11:08:35;95028.19;;;9.88;78.78
6136;BME280;24008;42.664;23.372;2023-05-10T11:11:07;95040.47;;;10.03;79.45
6136;BME280;24008;42.664;23.372;2023-05-10T11:13:38;95039.66;;;10.03;79.00
6136;BME280;24008;42.664;23.372;2023-05-10T11:16:14;95020.25;;;9.91;79.65
6136;BME280;24008;42.664;23.372;2023-05-10T11:18:57;95031.03;;;9.94;79.56
6136;BME280;24008;42.664;23.372;2023-05-10T11:21:24;95012.44;;;9.83;79.69
6136;BME280;24008;42.664;23.372;2023-05-10T11:23:52;95003.88;;;9.93;80.15
6136;BME280;24008;42.664;23.372;2023-05-10T11:26:21;95033.84;;;10.22;78.66
6136;BME280;24008;42.664;23.372;2023-05-10T11:28:52;95046.75;;;10.20;78.32
6136;BME280;24008;42.664;23.372;2023-05-10T11:31:21;95047.09;;;10.16;78.97
6136;BME280;24008;42.664;23.372;2023-05-10T11:33:49;95039.19;;;10.19;79.23
6136;BME280;24008;42.664;23.372;2023-05-10T11:36:17;95041.50;;;10.22;79.36
6136;BME280;24008;42.664;23.372;2023-05-10T11:38:45;94954.41;;;9.75;78.01
6136;BME280;24008;42.664;23.372;2023-05-10T11:41:12;95006.22;;;10.16;79.48
6136;BME280;24008;42.664;23.372;2023-05-10T11:43:40;95040.34;;;10.45;78.90
6136;BME280;24008;42.664;23.372;2023-05-10T11:46:07;95040.09;;;10.58;77.83
6136;BME280;24008;42.664;23.372;2023-05-10T11:48:36;94955.25;;;9.95;77.99
6136;BME280;24008;42.664;23.372;2023-05-10T11:51:05;95040.31;;;10.35;77.61
6136;BME280;24008;42.664;23.372;2023-05-10T11:53:33;94952.19;;;9.61;78.98
6136;BME280;24008;42.664;23.372;2023-05-10T11:56:03;95034.16;;;10.07;79.64
6136;BME280;24008;42.664;23.372;2023-05-10T11:58:31;94996.44;;;9.81;79.20
6136;BME280;24008;42.664;23.372;2023-05-10T12:00:58;94951.88;;;9.45;79.33
6136;BME280;24008;42.664;23.372;2023-05-10T12:03:25;95021.06;;;9.91;80.14
6136;BME280;24008;42.664;23.372;2023-05-10T12:05:54;95000.13;;;9.88;80.46
6136;BME280;24008;42.664;23.372;2023-05-10T12:08:23;95033.91;;;10.01;80.46
6136;BME280;24008;42.664;23.372;2023-05-10T12:10:50;94982.06;;;9.80;80.79
6136;BME280;24008;42.664;23.372;2023-05-10T12:13:19;95017.38;;;10.15;79.22
6136;BME280;24008;42.664;23.372;2023-05-10T12:15:58;95030.31;;;10.13;78.73
6136;BME280;24008;42.664;23.372;2023-05-10T12:18:26;94954.88;;;9.59;79.59
6136;BME280;24008;42.664;23.372;2023-05-10T12:20:54;95026.19;;;10.22;78.91
6136;BME280;24008;42.664;23.372;2023-05-10T12:23:21;94985.66;;;10.07;79.01
6136;BME280;24008;42.664;23.372;2023-05-10T12:25:47;94995.66;;;10.30;77.63
6136;BME280;24008;42.664;23.372;2023-05-10T12:28:14;95009.78;;;10.34;77.68
6136;BME280;24008;42.664;23.372;2023-05-10T12:30:41;95002.94;;;10.44;77.88
6136;BME280;24008;42.664;23.372;2023-05-10T12:33:10;95014.53;;;10.67;76.97
6136;BME280;24008;42.664;23.372;2023-05-10T12:35:47;95030.16;;;10.74;76.88
6136;BME280;24008;42.664;23.372;2023-05-10T12:38:29;95021.25;;;10.78;76.33
6136;BME280;24008;42.664;23.372;2023-05-10T12:40:58;95012.38;;;10.72;76.35
6136;BME280;24008;42.664;23.372;2023-05-10T12:43:25;95004.28;;;10.77;75.86
6136;BME280;24008;42.664;23.372;2023-05-10T12:45:52;95005.50;;;10.63;75.69
6136;BME280;24008;42.664;23.372;2023-05-10T12:48:19;95004.69;;;10.53;75.99
6136;BME280;24008;42.664;23.372;2023-05-10T12:50:46;94911.97;;;9.93;76.18
6136;BME280;24008;42.664;23.372;2023-05-10T12:53:14;95011.69;;;10.41;76.49
6136;BME280;24008;42.664;23.372;2023-05-10T12:55:43;94986.81;;;10.34;76.71
6136;BME280;24008;42.664;23.372;2023-05-10T12:58:10;94789.03;;;9.00;77.30
6136;BME280;24008;42.664;23.372;2023-05-10T13:00:37;94997.97;;;10.33;77.66
6136;BME280;24008;42.664;23.372;2023-05-10T13:03:04;94989.22;;;10.35;77.92
6136;BME280;24008;42.664;23.372;2023-05-10T13:05:31;94986.69;;;10.45;78.40
6136;BME280;24008;42.664;23.372;2023-05-10T13:07:58;94989.34;;;10.53;78.09
6136;BME280;24008;42.664;23.372;2023-05-10T13:10:25;94950.97;;;10.15;77.30
6136;BME280;24008;42.664;23.372;2023-05-10T13:12:54;94930.00;;;10.11;78.11
6136;BME280;24008;42.664;23.372;2023-05-10T13:15:20;94839.38;;;9.57;78.41
6136;BME280;24008;42.664;23.372;2023-05-10T13:17:47;94992.47;;;10.47;77.74